Time;durP1;ratioP1;P1;durP2;ratioP2;P2;SDS_P1;SDS_P2;PMS_P1;PMS_P2;Temp;Humidity;BMP_temperature;BMP_pressure;BME280_temperature;BME280_humidity;BME280_pressure;Samples;Min_cycle;Max_cycle;Signal;HPM_P1;HPM_P2
2023/01/28 00:01:14;;;;;;;28.33;13.38;;;20.30;63.70;;;;;;5068314;28;20573;-75
2023/01/28 00:03:40;;;;;;;21.92;12.32;;;20.20;62.90;;;;;;5070513;28;20190;-75
2023/01/28 00:06:08;;;;;;;22.77;11.57;;;20.20;63.20;;;;;;5071747;28;20666;-75
2023/01/28 00:08:35;;;;;;;19.30;11.82;;;20.10;63.10;;;;;;5070280;28;20024;-75
2023/01/28 00:11:02;;;;;;;23.75;10.98;;;20.10;62.90;;;;;;5071918;28;20036;-75
2023/01/28 00:13:29;;;;;;;18.38;12.55;;;20.10;62.90;;;;;;5071211;28;20036;-75
2023/01/28 00:15:59;;;;;;;17.20;11.15;;;20.10;63.00;;;;;;5072210;28;20028;-75
2023/01/28 00:18:26;;;;;;;20.13;10.80;;;20.10;62.80;;;;;;5072638;28;20055;-75
2023/01/28 00:21:00;;;;;;;18.00;11.90;;;20.10;62.50;;;;;;5072269;28;20037;-75
2023/01/28 00:23:28;;;;;;;16.38;10.65;;;20.10;62.80;;;;;;5071250;28;20024;-75
2023/01/28 00:25:57;;;;;;;18.13;10.90;;;20.00;62.60;;;;;;5072159;28;20028;-75
2023/01/28 00:28:23;;;;;;;19.13;10.90;;;20.10;62.60;;;;;;5071435;28;20029;-75
2023/01/28 00:30:49;;;;;;;17.90;11.52;;;20.10;62.60;;;;;;5070869;28;20274;-75
2023/01/28 00:33:15;;;;;;;19.02;11.32;;;20.10;62.80;;;;;;5070434;28;20462;-75
2023/01/28 00:35:41;;;;;;;16.25;10.88;;;20.00;62.70;;;;;;5069624;28;20027;-75
2023/01/28 00:38:08;;;;;;;15.68;10.23;;;20.10;62.50;;;;;;5054022;28;20051;-75
2023/01/28 00:40:34;;;;;;;16.60;10.88;;;20.10;62.70;;;;;;5084422;28;20436;-75
2023/01/28 00:43:00;;;;;;;19.58;10.63;;;20.10;62.40;;;;;;5051170;28;20531;-74
2023/01/28 00:45:25;;;;;;;17.48;10.25;;;20.00;62.00;;;;;;5060588;28;20045;-74
2023/01/28 00:47:51;;;;;;;18.80;11.00;;;20.00;62.70;;;;;;5054666;28;20120;-74
2023/01/28 00:50:20;;;;;;;17.50;10.75;;;20.00;62.40;;;;;;5056389;28;20107;-75
2023/01/28 00:52:47;;;;;;;27.17;11.20;;;20.00;62.90;;;;;;5069643;28;20135;-75
2023/01/28 00:55:13;;;;;;;36.92;11.00;;;20.10;62.30;;;;;;5050590;28;20021;-74
2023/01/28 00:57:40;;;;;;;24.15;10.30;;;20.10;63.10;;;;;;5079066;28;20063;-75
2023/01/28 01:00:07;;;;;;;23.08;10.23;;;20.10;63.50;;;;;;5071392;28;20480;-75
2023/01/28 01:02:33;;;;;;;18.40;9.90;;;20.10;63.00;;;;;;5069573;28;20476;-76
2023/01/28 01:04:58;;;;;;;20.00;11.13;;;20.10;62.80;;;;;;5071092;28;20107;-76
2023/01/28 01:07:51;;;;;;;23.13;10.38;;;20.10;62.80;;;;;;5069429;28;20113;-76
2023/01/28 01:10:18;;;;;;;16.88;9.90;;;20.10;63.00;;;;;;5069519;28;20036;-76
2023/01/28 01:12:48;;;;;;;17.50;10.50;;;20.10;63.50;;;;;;5069509;28;20404;-75
2023/01/28 01:15:15;;;;;;;16.17;9.95;;;20.10;62.90;;;;;;5069322;28;20480;-76
2023/01/28 01:17:43;;;;;;;17.92;9.77;;;20.10;63.30;;;;;;5053080;28;20037;-75
2023/01/28 01:20:17;;;;;;;18.65;9.95;;;20.10;63.20;;;;;;5034994;28;20297;-76
2023/01/28 01:22:43;;;;;;;16.85;10.07;;;20.10;63.10;;;;;;5052071;28;20374;-75
2023/01/28 01:25:11;;;;;;;23.88;10.50;;;20.10;63.20;;;;;;5069822;28;20036;-75
2023/01/28 01:27:36;;;;;;;18.63;9.38;;;20.10;63.20;;;;;;5054684;28;20413;-76
2023/01/28 01:30:03;;;;;;;17.02;9.35;;;20.10;63.10;;;;;;5052172;28;20032;-75
2023/01/28 01:32:33;;;;;;;19.90;9.50;;;20.10;63.10;;;;;;5050354;28;20142;-75
2023/01/28 01:35:00;;;;;;;17.48;9.13;;;20.10;63.20;;;;;;5087091;28;20450;-76
2023/01/28 01:37:26;;;;;;;16.70;9.32;;;20.10;63.10;;;;;;5087821;28;20049;-76
2023/01/28 01:39:52;;;;;;;14.85;9.30;;;20.10;63.30;;;;;;5076339;28;20024;-75
2023/01/28 01:42:19;;;;;;;16.45;9.20;;;20.10;63.50;;;;;;5069408;28;20477;-78
2023/01/28 01:48:26;;;;;;;15.20;7.18;;;20.00;56.70;;;;;;5003246;28;20150;-72
2023/01/28 01:51:16;;;;;;;21.20;11.50;;;19.90;58.00;;;;;;4988738;28;20030;-73
2023/01/28 01:53:45;;;;;;;9.23;4.43;;;19.50;48.70;;;;;;4989881;28;20069;-72
2023/01/28 01:56:15;;;;;;;12.90;5.28;;;19.00;39.90;;;;;;4990684;28;20045;-72
2023/01/28 01:58:44;;;;;;;19.65;6.13;;;18.80;43.30;;;;;;4987683;28;20414;-71
2023/01/28 02:01:12;;;;;;;13.88;6.07;;;18.90;46.90;;;;;;4989754;28;20121;-71
2023/01/28 02:03:50;;;;;;;11.52;6.10;;;19.10;48.80;;;;;;5006909;28;20106;-71
2023/01/28 02:06:16;;;;;;;11.27;6.03;;;19.20;50.60;;;;;;5000766;28;20030;-71
2023/01/28 02:08:44;;;;;;;10.88;5.60;;;19.30;51.70;;;;;;4971483;28;20037;-71
2023/01/28 02:11:13;;;;;;;17.98;6.00;;;19.40;52.20;;;;;;5006775;28;20029;-71
2023/01/28 02:13:51;;;;;;;9.88;5.22;;;19.50;52.70;;;;;;5006542;28;20494;-71
2023/01/28 02:16:17;;;;;;;12.55;5.40;;;19.50;52.90;;;;;;5006223;28;20023;-71
2023/01/28 02:18:43;;;;;;;10.52;5.38;;;19.60;53.30;;;;;;4990169;28;20462;-71
2023/01/28 02:21:31;;;;;;;11.77;5.50;;;19.60;53.50;;;;;;4990342;28;20035;-71
2023/01/28 02:24:16;;;;;;;10.10;4.70;;;19.60;53.70;;;;;;4990004;28;20035;-71
2023/01/28 02:27:02;;;;;;;15.65;5.13;;;19.60;53.80;;;;;;4991163;28;20069;-71
2023/01/28 02:29:51;;;;;;;10.48;4.80;;;19.70;54.10;;;;;;5006378;28;20049;-70
2023/01/28 02:32:27;;;;;;;13.38;5.50;;;19.70;54.40;;;;;;4990037;28;20027;-71
2023/01/28 02:35:20;;;;;;;9.20;4.78;;;19.70;54.60;;;;;;5006315;28;20042;-71
2023/01/28 02:37:56;;;;;;;13.07;5.13;;;19.70;54.70;;;;;;5006488;28;20030;-72
2023/01/28 02:40:28;;;;;;;13.88;4.93;;;19.70;54.90;;;;;;4991043;28;20035;-71
2023/01/28 02:42:56;;;;;;;11.25;5.18;;;19.70;55.00;;;;;;5009093;28;20034;-71
2023/01/28 02:48:18;;;;;;;13.00;5.30;;;19.70;55.40;;;;;;5009735;28;20018;-71
2023/01/28 02:51:08;;;;;;;12.93;4.90;;;19.70;55.60;;;;;;4993263;28;20030;-71
2023/01/28 02:53:50;;;;;;;10.77;4.95;;;19.70;55.90;;;;;;4993423;28;20030;-71
2023/01/28 02:56:53;;;;;;;14.77;5.07;;;19.70;56.00;;;;;;4991896;28;20030;-71
2023/01/28 02:59:35;;;;;;;8.52;4.97;;;19.70;56.10;;;;;;4993931;28;20080;-71
2023/01/28 03:02:26;;;;;;;11.23;4.47;;;19.70;56.50;;;;;;4995183;28;20042;-71
2023/01/28 03:05:21;;;;;;;13.90;4.50;;;19.70;56.50;;;;;;4999745;28;20026;-71
2023/01/28 03:07:48;;;;;;;12.65;4.88;;;19.70;56.50;;;;;;5005878;28;20434;-71
2023/01/28 03:10:19;;;;;;;9.52;4.43;;;19.70;56.80;;;;;;5010068;28;20058;-71
2023/01/28 03:39:00;;;;;;;8.13;4.32;;;19.70;58.00;;;;;;5009233;28;20031;-71
2023/01/28 03:41:26;;;;;;;8.02;3.85;;;19.70;58.10;;;;;;5009371;28;20034;-71
2023/01/28 03:43:54;;;;;;;8.02;4.00;;;19.70;58.10;;;;;;4992747;28;20068;-71
2023/01/28 03:46:21;;;;;;;9.90;3.97;;;19.70;58.10;;;;;;4992259;28;20034;-71
2023/01/28 03:48:47;;;;;;;10.80;4.78;;;19.70;58.00;;;;;;5001697;28;20034;-71
2023/01/28 03:51:14;;;;;;;6.43;3.80;;;19.70;58.20;;;;;;5008947;28;20069;-71
2023/01/28 03:53:40;;;;;;;13.18;4.30;;;19.70;58.10;;;;;;4992459;28;20553;-71
2023/01/28 03:56:07;;;;;;;8.68;3.97;;;19.70;58.10;;;;;;5008304;28;20113;-71
2023/01/28 03:58:51;;;;;;;9.85;4.20;;;19.70;58.40;;;;;;4992683;28;20460;-71
2023/01/28 04:01:18;;;;;;;8.45;4.05;;;19.70;58.30;;;;;;4992457;28;20039;-71
2023/01/28 04:03:44;;;;;;;11.85;4.13;;;19.70;58.80;;;;;;4992723;28;20064;-71
2023/01/28 04:06:14;;;;;;;7.55;3.88;;;19.70;58.50;;;;;;4991763;28;20026;-72
2023/01/28 04:09:06;;;;;;;9.68;3.95;;;19.70;58.60;;;;;;4994437;28;20048;-72
2023/01/28 04:11:50;;;;;;;7.13;3.80;;;19.70;58.60;;;;;;5008721;28;20050;-72
2023/01/28 04:14:22;;;;;;;10.63;4.10;;;19.70;59.10;;;;;;4991487;28;20081;-72
2023/01/28 04:16:55;;;;;;;8.60;4.22;;;19.70;58.80;;;;;;5008025;28;20096;-72
2023/01/28 04:19:23;;;;;;;7.22;3.53;;;19.70;59.00;;;;;;5004826;28;20430;-72
2023/01/28 04:21:52;;;;;;;8.02;4.10;;;19.70;59.10;;;;;;5006342;28;20039;-72
2023/01/28 04:24:19;;;;;;;10.30;4.13;;;19.70;58.90;;;;;;4991141;28;20065;-72
2023/01/28 04:26:45;;;;;;;8.90;4.05;;;19.70;59.50;;;;;;4990716;28;20034;-71
2023/01/28 04:29:11;;;;;;;8.35;4.05;;;19.70;58.90;;;;;;4988068;28;20042;-71
2023/01/28 04:31:38;;;;;;;7.72;3.40;;;19.70;59.00;;;;;;4990357;28;20026;-71
2023/01/28 04:34:42;;;;;;;13.82;4.55;;;19.70;59.10;;;;;;4981977;28;20120;-71
2023/01/28 04:37:26;;;;;;;6.38;3.78;;;19.70;59.20;;;;;;4992505;28;20029;-71
2023/01/28 04:40:11;;;;;;;7.45;3.70;;;19.70;59.30;;;;;;5007746;28;20034;-71
2023/01/28 04:42:54;;;;;;;7.60;3.85;;;19.70;59.30;;;;;;5008108;28;20077;-71
2023/01/28 04:45:33;;;;;;;6.32;3.33;;;19.70;59.30;;;;;;5008209;28;20049;-71
2023/01/28 04:48:13;;;;;;;7.82;3.40;;;19.70;58.90;;;;;;4992657;28;20037;-71
2023/01/28 04:50:57;;;;;;;9.27;3.85;;;19.70;59.20;;;;;;4983719;28;20513;-71
2023/01/28 04:53:46;;;;;;;8.07;3.95;;;19.70;59.30;;;;;;4973569;28;20376;-71
2023/01/28 04:56:27;;;;;;;7.93;3.88;;;19.70;59.20;;;;;;4973463;28;20445;-71
2023/01/28 04:58:55;;;;;;;7.30;3.67;;;19.70;59.20;;;;;;5004204;28;20124;-71
2023/01/28 05:01:21;;;;;;;6.93;4.00;;;19.70;59.20;;;;;;4991109;28;20050;-71
2023/01/28 05:03:47;;;;;;;6.05;3.50;;;19.70;59.20;;;;;;5002614;28;20506;-71
2023/01/28 05:06:20;;;;;;;9.30;3.70;;;19.70;59.20;;;;;;4998071;28;20062;-71
2023/01/28 05:08:47;;;;;;;7.82;3.92;;;19.70;59.60;;;;;;4990585;28;20522;-71
2023/01/28 05:11:14;;;;;;;6.05;3.55;;;19.70;59.30;;;;;;5003897;28;20431;-71
2023/01/28 05:13:40;;;;;;;7.38;3.60;;;19.70;59.40;;;;;;5002843;28;20399;-71
2023/01/28 05:16:08;;;;;;;7.75;4.03;;;19.70;59.50;;;;;;4983602;28;20019;-71
2023/01/28 05:18:34;;;;;;;6.75;3.53;;;19.70;59.50;;;;;;5005460;28;20057;-70
2023/01/28 05:21:08;;;;;;;6.93;3.60;;;19.70;59.30;;;;;;4990976;28;20034;-72
2023/01/28 05:23:36;;;;;;;7.80;3.45;;;19.70;59.60;;;;;;5006103;28;20492;-72
2023/01/28 05:26:02;;;;;;;7.00;3.47;;;19.70;59.70;;;;;;4989936;28;20165;-72
2023/01/28 05:28:28;;;;;;;7.38;3.88;;;19.70;59.50;;;;;;5003381;28;20037;-72
2023/01/28 05:30:56;;;;;;;6.13;3.47;;;19.70;59.60;;;;;;5005255;28;20030;-71
2023/01/28 05:33:22;;;;;;;5.88;3.53;;;19.70;59.80;;;;;;5006474;28;20019;-71
2023/01/28 05:35:48;;;;;;;5.88;3.58;;;19.70;59.80;;;;;;5006019;28;20148;-71
2023/01/28 05:38:16;;;;;;;7.93;3.50;;;19.70;59.80;;;;;;5003234;28;20086;-71
2023/01/28 05:40:41;;;;;;;5.93;3.00;;;19.70;59.80;;;;;;4972704;28;20038;-71
2023/01/28 05:43:07;;;;;;;6.85;3.88;;;19.70;59.60;;;;;;5002998;28;20035;-72
2023/01/28 05:45:39;;;;;;;7.75;3.53;;;19.70;60.00;;;;;;4979305;28;20034;-72
2023/01/28 05:48:09;;;;;;;5.97;3.47;;;19.70;60.10;;;;;;5002731;28;20402;-71
2023/01/28 05:51:08;;;;;;;9.33;3.30;;;19.70;59.90;;;;;;4987461;28;20078;-71
2023/01/28 05:53:36;;;;;;;7.03;4.00;;;19.70;59.70;;;;;;5002760;28;20089;-71
2023/01/28 05:56:02;;;;;;;5.28;2.97;;;19.70;60.20;;;;;;5003175;28;20030;-71
2023/01/28 05:58:31;;;;;;;6.15;3.30;;;19.70;60.00;;;;;;5002400;28;20231;-72
2023/01/28 06:01:00;;;;;;;6.63;3.65;;;19.70;60.30;;;;;;5002388;28;20053;-71
2023/01/28 06:03:33;;;;;;;8.95;3.85;;;19.70;60.10;;;;;;5005105;28;20077;-71
2023/01/28 06:06:00;;;;;;;7.05;3.20;;;19.70;60.00;;;;;;5003291;28;20039;-72
2023/01/28 06:08:26;;;;;;;7.10;3.35;;;19.70;59.70;;;;;;4998007;28;20085;-71
2023/01/28 06:10:52;;;;;;;5.47;3.40;;;19.70;60.30;;;;;;5006870;28;20433;-71
2023/01/28 06:13:19;;;;;;;6.60;3.42;;;19.70;60.50;;;;;;5005632;28;20379;-71
2023/01/28 06:16:02;;;;;;;6.68;4.05;;;19.70;59.70;;;;;;4988830;28;20714;-71
2023/01/28 06:18:58;;;;;;;7.68;4.22;;;19.70;59.90;;;;;;5005793;28;20034;-72
2023/01/28 06:21:24;;;;;;;8.63;3.85;;;19.70;60.20;;;;;;5002003;28;20038;-71
2023/01/28 06:23:50;;;;;;;7.25;3.28;;;19.70;59.90;;;;;;4987089;28;20493;-71
2023/01/28 06:26:15;;;;;;;7.53;3.85;;;19.70;60.00;;;;;;4980839;28;20454;-72
2023/01/28 06:28:43;;;;;;;7.00;3.90;;;19.70;60.10;;;;;;4990266;28;20038;-71
2023/01/28 06:31:09;;;;;;;8.77;3.90;;;19.70;59.90;;;;;;4991039;28;20022;-71
2023/01/28 06:33:37;;;;;;;6.50;3.90;;;19.70;60.10;;;;;;4990503;28;20080;-71
2023/01/28 06:36:05;;;;;;;6.20;3.60;;;19.70;59.70;;;;;;5005934;28;20030;-71
2023/01/28 06:38:31;;;;;;;5.55;3.60;;;19.70;59.90;;;;;;5003880;28;20394;-71
2023/01/28 06:40:57;;;;;;;5.63;3.47;;;19.70;59.80;;;;;;4989842;28;20398;-71
2023/01/28 06:43:29;;;;;;;6.72;3.97;;;19.70;60.10;;;;;;4981693;28;20038;-72
2023/01/28 06:45:56;;;;;;;7.53;3.78;;;19.70;59.90;;;;;;4990562;28;20498;-72
2023/01/28 06:48:23;;;;;;;8.02;3.85;;;19.70;59.90;;;;;;4989546;28;20510;-71
2023/01/28 06:50:50;;;;;;;7.53;4.07;;;19.70;60.10;;;;;;4990370;28;20438;-72
2023/01/28 06:53:17;;;;;;;5.18;3.17;;;19.70;60.00;;;;;;4989214;28;20031;-72
2023/01/28 06:55:42;;;;;;;5.35;3.33;;;19.70;60.20;;;;;;4989454;28;20034;-72
2023/01/28 06:58:08;;;;;;;5.25;3.17;;;19.70;60.00;;;;;;4986143;28;20034;-72
2023/01/28 07:00:34;;;;;;;6.53;3.67;;;19.70;60.10;;;;;;4979240;28;20022;-72
2023/01/28 07:03:00;;;;;;;7.60;3.58;;;19.70;60.00;;;;;;4989321;28;20034;-72
2023/01/28 07:05:26;;;;;;;6.18;3.78;;;19.70;60.10;;;;;;4990493;28;20030;-71
2023/01/28 07:07:52;;;;;;;7.43;3.40;;;19.70;59.80;;;;;;4988724;28;20038;-72
2023/01/28 07:10:17;;;;;;;6.22;3.53;;;19.70;60.00;;;;;;5004007;28;20035;-71
2023/01/28 07:12:43;;;;;;;6.88;3.50;;;19.70;59.70;;;;;;5001794;28;20023;-72
2023/01/28 07:15:10;;;;;;;9.32;3.70;;;19.70;60.10;;;;;;4978568;28;20031;-71
2023/01/28 07:17:40;;;;;;;7.68;3.80;;;19.70;59.70;;;;;;4989316;28;20042;-72
2023/01/28 07:20:08;;;;;;;6.93;4.00;;;19.70;59.60;;;;;;5002079;28;20053;-72
2023/01/28 07:22:34;;;;;;;7.65;3.97;;;19.70;59.80;;;;;;4989794;28;20027;-72
2023/01/28 07:25:00;;;;;;;7.38;3.75;;;19.70;60.30;;;;;;4989481;28;20034;-71
2023/01/28 07:27:26;;;;;;;7.05;3.53;;;19.70;60.20;;;;;;4988731;28;20097;-70
2023/01/28 07:29:52;;;;;;;5.63;3.63;;;19.70;60.20;;;;;;4993059;28;20034;-72
2023/01/28 07:32:18;;;;;;;6.78;3.67;;;19.70;60.00;;;;;;4993954;28;20232;-72
2023/01/28 07:34:43;;;;;;;7.35;3.70;;;19.70;60.20;;;;;;4993431;28;20022;-72
2023/01/28 07:37:09;;;;;;;9.43;3.63;;;19.70;60.10;;;;;;5008296;28;20057;-72
2023/01/28 07:39:35;;;;;;;6.05;3.80;;;19.70;60.10;;;;;;4993336;28;20038;-72
2023/01/28 07:42:01;;;;;;;5.85;3.70;;;19.70;60.00;;;;;;4988923;28;20070;-72
2023/01/28 07:44:35;;;;;;;5.57;3.53;;;19.70;60.10;;;;;;4982026;28;20032;-72
2023/01/28 07:47:02;;;;;;;6.32;3.67;;;19.70;59.90;;;;;;5056094;22;20558;-74
2023/01/28 07:49:28;;;;;;;6.13;3.55;;;19.70;59.90;;;;;;5054816;28;20020;-74
2023/01/28 07:51:54;;;;;;;7.32;3.67;;;19.70;59.70;;;;;;5071964;28;20500;-74
2023/01/28 07:54:19;;;;;;;7.80;3.95;;;19.70;59.80;;;;;;5072217;28;20487;-75
2023/01/28 07:56:45;;;;;;;7.45;3.58;;;19.70;59.90;;;;;;5055940;28;20017;-74
2023/01/28 07:59:11;;;;;;;6.95;3.80;;;19.70;59.70;;;;;;5065600;28;20033;-74
2023/01/28 08:01:37;;;;;;;8.93;3.75;;;19.70;59.70;;;;;;5070805;28;20103;-73
2023/01/28 08:04:03;;;;;;;7.22;3.97;;;19.70;60.00;;;;;;5053509;28;20028;-74
2023/01/28 08:06:29;;;;;;;6.80;4.13;;;19.70;59.80;;;;;;5071572;28;20385;-74
2023/01/28 08:08:55;;;;;;;5.85;3.70;;;19.70;60.00;;;;;;5071224;28;20025;-74
2023/01/28 08:11:22;;;;;;;5.95;3.80;;;19.70;59.80;;;;;;5072584;28;20031;-75
2023/01/28 08:13:48;;;;;;;6.55;3.58;;;19.70;59.90;;;;;;5072303;28;20054;-75
2023/01/28 08:16:13;;;;;;;6.93;4.07;;;19.70;59.80;;;;;;5053488;28;20044;-74
2023/01/28 08:18:39;;;;;;;6.60;3.60;;;19.70;60.00;;;;;;5054220;28;20086;-75
2023/01/28 08:21:05;;;;;;;6.80;3.75;;;19.70;60.00;;;;;;5071323;28;20085;-74
2023/01/28 08:23:33;;;;;;;8.13;3.50;;;19.70;59.90;;;;;;5053558;28;20024;-74
2023/01/28 08:25:59;;;;;;;7.07;3.75;;;19.70;60.00;;;;;;5053374;28;20032;-75
2023/01/28 08:28:26;;;;;;;5.82;3.50;;;19.70;60.20;;;;;;5072328;28;20074;-74
2023/01/28 08:30:52;;;;;;;7.97;4.05;;;19.70;59.90;;;;;;5054747;28;20119;-74
2023/01/28 08:33:19;;;;;;;7.50;3.97;;;19.70;60.00;;;;;;5053340;28;20032;-74
2023/01/28 08:35:45;;;;;;;7.13;4.22;;;19.70;59.80;;;;;;5072393;28;20123;-74
2023/01/28 08:38:14;;;;;;;6.85;3.72;;;19.70;59.70;;;;;;5052959;28;20055;-74
2023/01/28 08:40:40;;;;;;;5.13;3.30;;;19.70;59.70;;;;;;5053992;28;20618;-75
2023/01/28 08:43:06;;;;;;;6.15;3.97;;;19.70;60.00;;;;;;5053324;28;20391;-75
2023/01/28 08:45:31;;;;;;;8.38;4.38;;;19.70;59.80;;;;;;5053303;28;20029;-74
2023/01/28 08:48:03;;;;;;;6.10;3.65;;;19.70;59.60;;;;;;5071224;28;20051;-74
2023/01/28 08:50:32;;;;;;;10.35;4.13;;;19.70;60.00;;;;;;5072145;28;20032;-73
2023/01/28 08:53:03;;;;;;;7.27;4.17;;;19.70;59.80;;;;;;5052931;28;20035;-75
2023/01/28 08:55:29;;;;;;;7.30;4.18;;;19.70;59.70;;;;;;5050316;28;20493;-74
2023/01/28 08:57:55;;;;;;;7.40;4.22;;;19.70;59.60;;;;;;5053857;28;20056;-74
2023/01/28 09:00:21;;;;;;;7.18;4.00;;;19.70;59.50;;;;;;5071850;28;20407;-75
2023/01/28 09:02:52;;;;;;;7.78;4.07;;;19.70;59.70;;;;;;5053251;28;20034;-74
2023/01/28 09:05:18;;;;;;;7.45;4.43;;;19.70;59.60;;;;;;5070485;28;20031;-74
2023/01/28 09:07:44;;;;;;;6.03;3.85;;;19.70;59.70;;;;;;5052224;28;20036;-74
2023/01/28 09:10:10;;;;;;;6.78;4.30;;;19.70;59.80;;;;;;5071013;28;20023;-75
2023/01/28 09:12:36;;;;;;;9.13;4.20;;;19.70;59.80;;;;;;5053071;28;20076;-74
2023/01/28 09:15:02;;;;;;;7.40;4.43;;;19.70;59.90;;;;;;5071570;28;20040;-75
2023/01/28 09:17:28;;;;;;;9.18;4.57;;;19.70;59.70;;;;;;5069736;28;20275;-75
2023/01/28 09:19:54;;;;;;;7.03;4.32;;;19.70;59.70;;;;;;5032897;28;20495;-75
2023/01/28 09:22:20;;;;;;;7.53;4.40;;;19.70;59.90;;;;;;5070526;28;20362;-75
2023/01/28 09:24:45;;;;;;;8.30;4.55;;;19.70;60.00;;;;;;5071025;28;20024;-74
2023/01/28 09:27:11;;;;;;;8.20;4.32;;;19.70;59.80;;;;;;5069679;28;20036;-75
2023/01/28 09:29:37;;;;;;;7.55;4.63;;;19.70;59.90;;;;;;5035886;28;20409;-75
2023/01/28 09:32:05;;;;;;;7.05;4.22;;;19.70;59.60;;;;;;5052970;28;20041;-76
2023/01/28 09:34:30;;;;;;;7.40;4.30;;;19.70;59.80;;;;;;5053147;28;20024;-75
2023/01/28 09:36:56;;;;;;;9.30;4.28;;;19.70;59.70;;;;;;5051857;28;20028;-75
2023/01/28 09:39:23;;;;;;;8.02;4.25;;;19.70;59.80;;;;;;5071224;28;20535;-74
2023/01/28 09:42:11;;;;;;;7.90;4.53;;;19.70;59.60;;;;;;5070520;28;20055;-75
2023/01/28 09:45:11;;;;;;;8.13;4.60;;;19.70;60.00;;;;;;5071019;28;20040;-75
2023/01/28 09:47:47;;;;;;;7.43;4.15;;;19.70;59.90;;;;;;5069067;28;20039;-74
2023/01/28 09:50:31;;;;;;;7.60;4.53;;;19.70;59.80;;;;;;5069239;28;20689;-74
2023/01/28 09:53:04;;;;;;;7.13;4.20;;;19.70;59.80;;;;;;5069562;28;20029;-73
2023/01/28 09:55:34;;;;;;;7.03;4.30;;;19.70;59.80;;;;;;5070822;28;20097;-74
2023/01/28 09:58:00;;;;;;;6.50;4.40;;;19.70;59.50;;;;;;5070960;28;20136;-74
2023/01/28 10:00:44;;;;;;;9.95;4.88;;;19.70;59.80;;;;;;5069863;28;20107;-74
2023/01/28 10:03:27;;;;;;;7.22;4.68;;;19.70;59.30;;;;;;5070758;28;20038;-74
2023/01/28 10:06:17;;;;;;;7.90;4.72;;;19.70;59.40;;;;;;5070639;28;20032;-74
2023/01/28 10:08:43;;;;;;;8.60;4.45;;;19.70;59.70;;;;;;5052184;28;20035;-74
2023/01/28 10:11:56;;;;;;;7.45;4.55;;;19.70;59.60;;;;;;5070543;28;20388;-74
2023/01/28 10:14:38;;;;;;;7.70;5.15;;;19.70;59.80;;;;;;5052777;28;20063;-74
2023/01/28 10:17:17;;;;;;;7.60;4.70;;;19.70;59.80;;;;;;5051573;28;20032;-74
2023/01/28 10:20:20;;;;;;;7.25;4.32;;;19.70;59.80;;;;;;5068638;28;20191;-74
2023/01/28 10:22:59;;;;;;;9.05;4.63;;;19.70;60.00;;;;;;5059784;28;20036;-75
2023/01/28 10:25:30;;;;;;;9.18;5.07;;;19.70;60.00;;;;;;5069641;28;20086;-74
2023/01/28 10:27:56;;;;;;;7.40;4.65;;;19.70;60.10;;;;;;5067885;28;20110;-74
2023/01/28 10:30:25;;;;;;;6.95;4.50;;;19.70;60.00;;;;;;5070721;28;20036;-74
2023/01/28 10:33:02;;;;;;;7.32;4.40;;;19.70;60.20;;;;;;5051911;28;20469;-74
2023/01/28 10:35:34;;;;;;;7.25;4.68;;;19.70;60.50;;;;;;5070315;28;20028;-74
2023/01/28 10:38:05;;;;;;;9.95;5.00;;;19.70;60.80;;;;;;5068156;28;20032;-74
2023/01/28 10:40:34;;;;;;;10.05;4.80;;;19.70;60.70;;;;;;5069971;28;20021;-74
2023/01/28 10:43:00;;;;;;;10.05;4.78;;;19.80;61.20;;;;;;5070286;28;20077;-74
2023/01/28 10:45:48;;;;;;;10.65;4.70;;;19.70;61.00;;;;;;5071068;28;20033;-75
2023/01/28 10:48:36;;;;;;;14.55;5.07;;;19.80;60.80;;;;;;5053393;28;20103;-75
2023/01/28 10:51:05;;;;;;;10.80;4.65;;;19.80;60.60;;;;;;5071016;28;20392;-75
2023/01/28 10:53:39;;;;;;;8.88;4.78;;;19.80;61.20;;;;;;5035643;28;20033;-75
2023/01/28 10:56:22;;;;;;;13.32;4.70;;;19.80;61.10;;;;;;5053364;28;20071;-75
2023/01/28 10:59:14;;;;;;;11.27;4.90;;;19.80;60.90;;;;;;5053107;28;20127;-75
2023/01/28 11:01:49;;;;;;;14.75;4.97;;;19.80;61.10;;;;;;5036107;28;20725;-75
2023/01/28 11:04:17;;;;;;;13.35;4.97;;;19.80;61.30;;;;;;5073527;28;20028;-75
2023/01/28 11:06:56;;;;;;;14.45;5.30;;;19.80;61.00;;;;;;5022221;28;20063;-75
2023/01/28 11:09:27;;;;;;;12.80;5.15;;;19.80;62.20;;;;;;5074352;28;20090;-75
2023/01/28 11:11:53;;;;;;;18.58;5.45;;;19.80;62.00;;;;;;5074106;28;20055;-77
2023/01/28 11:14:25;;;;;;;18.02;5.25;;;19.80;62.00;;;;;;5071682;28;20056;-76
2023/01/28 11:16:53;;;;;;;14.82;5.72;;;19.80;61.60;;;;;;5055797;28;20097;-76
2023/01/28 11:19:22;;;;;;;21.15;5.95;;;19.80;62.40;;;;;;5054786;28;20028;-76
2023/01/28 11:21:54;;;;;;;14.13;6.43;;;19.90;62.20;;;;;;5057259;28;20032;-78
2023/01/28 11:24:26;;;;;;;32.92;22.58;;;19.80;62.90;;;;;;5055296;28;20028;-76
2023/01/28 11:26:54;;;;;;;41.50;30.52;;;19.70;56.90;;;;;;5073629;28;20031;-74
2023/01/28 11:29:27;;;;;;;39.00;26.85;;;19.60;53.30;;;;;;5074049;28;20024;-76
2023/01/28 11:31:54;;;;;;;30.95;20.13;;;19.60;53.90;;;;;;5055710;28;20028;-75
2023/01/28 11:34:26;;;;;;;26.98;17.83;;;19.50;56.00;;;;;;5071637;28;20028;-75
2023/01/28 11:37:00;;;;;;;25.42;18.45;;;19.50;55.60;;;;;;5055206;28;20475;-75
2023/01/28 11:39:28;;;;;;;27.67;17.80;;;19.60;57.20;;;;;;5073912;28;20046;-74
2023/01/28 11:42:02;;;;;;;33.78;17.75;;;19.70;57.80;;;;;;5073653;28;20024;-73
2023/01/28 11:44:29;;;;;;;33.80;15.57;;;19.70;56.90;;;;;;5073862;28;20033;-75
2023/01/28 11:47:01;;;;;;;18.48;11.18;;;19.70;58.50;;;;;;5071537;28;20028;-76
2023/01/28 11:49:48;;;;;;;18.50;9.07;;;19.60;58.50;;;;;;5072476;28;20032;-76
2023/01/28 11:52:33;;;;;;;18.85;10.63;;;19.60;54.40;;;;;;5042484;28;20028;-75
2023/01/28 11:55:37;;;;;;;19.30;11.50;;;19.70;57.60;;;;;;5077259;28;20036;-75
2023/01/28 11:58:18;;;;;;;21.20;11.48;;;19.70;56.90;;;;;;5074315;28;20035;-76
2023/01/28 12:01:13;;;;;;;58.85;42.17;;;19.70;58.60;;;;;;5057705;28;20066;-76
2023/01/28 12:04:06;;;;;;;37.67;25.38;;;19.50;55.50;;;;;;5072568;28;20032;-75
2023/01/28 12:06:34;;;;;;;33.15;22.20;;;19.10;50.20;;;;;;5061755;28;20036;-77
2023/01/28 12:09:34;;;;;;;32.40;22.02;;;19.20;50.00;;;;;;5055090;28;20063;-75
2023/01/28 12:12:15;;;;;;;31.80;21.67;;;19.20;50.40;;;;;;5053957;28;20028;-75
2023/01/28 12:15:09;;;;;;;33.10;20.02;;;19.40;51.90;;;;;;5045794;28;20529;-75
2023/01/28 12:17:58;;;;;;;29.35;20.55;;;19.40;53.10;;;;;;5065534;28;20048;-77
2023/01/28 12:20:30;;;;;;;28.70;18.67;;;19.40;53.40;;;;;;5052789;28;20056;-75
2023/01/28 12:23:13;;;;;;;27.92;18.98;;;19.50;53.90;;;;;;5071858;28;20282;-75
2023/01/28 12:25:57;;;;;;;26.88;18.27;;;19.50;53.80;;;;;;5066415;28;20031;-75
2023/01/28 12:28:34;;;;;;;28.98;18.75;;;19.60;54.20;;;;;;5071578;28;20460;-77
2023/01/28 12:31:36;;;;;;;27.80;18.13;;;19.60;54.30;;;;;;5071267;28;20029;-76
2023/01/28 12:34:04;;;;;;;26.67;18.08;;;19.60;54.80;;;;;;5071534;28;20074;-75
2023/01/28 12:36:30;;;;;;;24.52;16.98;;;19.60;55.00;;;;;;5069153;28;20040;-75
2023/01/28 12:39:14;;;;;;;46.17;16.00;;;19.70;55.20;;;;;;5071251;28;20024;-76
2023/01/28 12:41:50;;;;;;;23.92;17.08;;;19.60;55.40;;;;;;5069999;28;20040;-75
2023/01/28 12:44:31;;;;;;;25.88;16.40;;;19.70;55.30;;;;;;5052929;28;20120;-75
2023/01/28 12:47:06;;;;;;;21.95;16.67;;;19.70;56.00;;;;;;5065437;28;20029;-75
2023/01/28 12:49:41;;;;;;;24.38;16.42;;;19.70;56.00;;;;;;5069995;28;20033;-76
2023/01/28 12:52:29;;;;;;;23.63;15.32;;;19.70;56.10;;;;;;5069970;28;20056;-78
2023/01/28 12:55:19;;;;;;;11.52;6.63;;;19.70;56.80;;;;;;5069196;28;20354;-77
2023/01/28 12:57:47;;;;;;;9.50;5.53;;;19.60;50.70;;;;;;5052224;28;20029;-78
2023/01/28 13:00:26;;;;;;;7.45;4.68;;;19.20;46.20;;;;;;5065932;28;20025;-75
2023/01/28 13:03:25;;;;;;;19.52;12.18;;;19.20;46.70;;;;;;5069992;28;20044;-80
2023/01/28 13:05:57;;;;;;;85.47;67.85;;;19.20;48.20;;;;;;5068000;28;20036;-77
2023/01/28 13:08:26;;;;;;;69.60;53.85;;;19.20;49.40;;;;;;5064004;28;20035;-75
2023/01/28 13:10:54;;;;;;;52.80;38.72;;;19.30;49.90;;;;;;5068925;28;20074;-77
2023/01/28 13:13:35;;;;;;;41.55;29.60;;;19.30;49.90;;;;;;5069387;28;20024;-75
2023/01/28 13:16:03;;;;;;;42.22;30.13;;;19.40;51.10;;;;;;5069383;28;20032;-76
2023/01/28 13:18:41;;;;;;;47.08;33.08;;;19.40;51.10;;;;;;5069914;28;20184;-77
2023/01/28 13:21:23;;;;;;;45.60;33.92;;;19.50;51.50;;;;;;5069827;28;20097;-75
2023/01/28 13:24:01;;;;;;;63.22;48.63;;;19.60;51.50;;;;;;5068138;28;20059;-78
2023/01/28 13:26:30;;;;;;;54.55;41.65;;;19.60;50.60;;;;;;5068853;28;20029;-77
2023/01/28 13:29:18;;;;;;;54.83;41.35;;;19.60;51.50;;;;;;5069293;28;20043;-76
2023/01/28 13:31:49;;;;;;;59.58;44.72;;;19.60;51.40;;;;;;5069890;28;20028;-76
2023/01/28 13:34:42;;;;;;;59.13;43.67;;;19.60;51.30;;;;;;5069330;28;20071;-75
2023/01/28 13:37:34;;;;;;;56.20;42.28;;;19.60;52.20;;;;;;5069539;28;20472;-75
2023/01/28 13:40:26;;;;;;;53.38;40.08;;;19.60;52.20;;;;;;5069286;28;20032;-75